createdAt,value
2017-07-15T00:02:57.683Z,43.8
2017-07-15T00:03:59.820Z,43.8
2017-07-15T00:05:01.291Z,43.9
2017-07-15T00:06:03.081Z,43.7
2017-07-15T00:07:04.880Z,43.7
2017-07-15T00:08:07.012Z,43.8
2017-07-15T00:09:07.784Z,43.8
2017-07-15T00:10:09.261Z,43.8
2017-07-15T00:11:11.058Z,43.7
2017-07-15T00:12:12.188Z,43.7
2017-07-15T00:13:13.649Z,43.8
2017-07-15T00:14:15.092Z,43.8
2017-07-15T00:15:16.223Z,43.8
2017-07-15T00:16:17.690Z,43.8
2017-07-15T00:17:19.491Z,43.8
2017-07-15T00:18:21.626Z,43.8
2017-07-15T00:19:23.483Z,43.8
2017-07-15T00:20:25.283Z,43.8
2017-07-15T00:21:27.060Z,43.8
2017-07-15T00:22:28.839Z,43.8
2017-07-15T00:23:30.637Z,43.8
2017-07-15T00:24:32.440Z,43.8
2017-07-15T00:25:34.216Z,43.8
2017-07-15T00:26:35.681Z,43.8
2017-07-15T00:27:37.477Z,43.8
2017-07-15T00:28:39.623Z,43.8
2017-07-15T00:29:41.087Z,43.8
2017-07-15T00:30:43.221Z,43.9
2017-07-15T00:31:45.356Z,43.7
2017-07-15T00:32:47.488Z,43.7
2017-07-15T00:33:49.287Z,43.7
2017-07-15T00:34:51.421Z,43.8
2017-07-15T00:35:53.218Z,43.8
2017-07-15T00:36:55.354Z,43.8
2017-07-15T00:37:57.490Z,43.7
2017-07-15T00:38:59.267Z,43.8
2017-07-15T00:40:01.083Z,43.9
2017-07-15T00:41:02.550Z,43.6
2017-07-15T00:42:03.655Z,43.7
2017-07-15T00:43:04.794Z,43.7
2017-07-15T00:44:06.598Z,43.8
2017-07-15T00:45:08.731Z,43.7
2017-07-15T00:46:10.865Z,43.9
2017-07-15T00:47:13.003Z,43.7
2017-07-15T00:48:14.776Z,43.7
2017-07-15T00:49:16.912Z,43.8
2017-07-15T00:50:19.045Z,43.9
2017-07-15T00:51:20.844Z,43.9
2017-07-15T00:52:22.309Z,43.7
2017-07-15T00:53:24.108Z,43.7
2017-07-15T00:54:26.242Z,43.8
2017-07-15T00:55:28.024Z,43.9
2017-07-15T00:56:30.158Z,43.8
2017-07-15T00:57:32.291Z,43.7
2017-07-15T00:58:33.731Z,43.8
2017-07-15T00:59:35.862Z,43.7
2017-07-15T01:00:37.997Z,43.7
2017-07-15T01:01:39.810Z,43.7
2017-07-15T01:02:41.945Z,43.8
2017-07-15T01:03:43.385Z,43.6
2017-07-15T01:04:45.521Z,43.7
2017-07-15T01:05:46.965Z,43.8
2017-07-15T01:06:48.430Z,43.8
2017-07-15T01:07:50.236Z,43.7
2017-07-15T01:08:51.706Z,43.8
2017-07-15T01:09:53.507Z,44
2017-07-15T01:10:55.643Z,43.7
2017-07-15T01:11:57.441Z,43.9
2017-07-15T01:12:59.248Z,43.7
2017-07-15T01:14:00.690Z,44
2017-07-15T01:15:02.474Z,43.8
2017-07-15T01:16:03.937Z,43.9
2017-07-15T01:17:05.713Z,43.7
2017-07-15T01:18:07.513Z,43.7
2017-07-15T01:19:09.311Z,43.7
2017-07-15T01:20:11.442Z,43.7
2017-07-15T01:21:13.578Z,43.9
2017-07-15T01:22:15.712Z,43.9
2017-07-15T01:23:17.511Z,43.7
2017-07-15T01:24:19.661Z,43.5
2017-07-15T01:25:21.477Z,43.9
2017-07-15T01:26:23.278Z,43.8
2017-07-15T01:27:24.387Z,43.6
2017-07-15T01:28:26.186Z,43.8
2017-07-15T01:29:27.630Z,43.9
2017-07-15T01:30:29.761Z,43.6
2017-07-15T01:31:31.579Z,43.8
2017-07-15T01:32:33.358Z,43.5
2017-07-15T01:33:35.159Z,43.7
2017-07-15T01:34:36.603Z,43.9
2017-07-15T01:35:38.046Z,43.7
2017-07-15T01:36:40.180Z,43.6
2017-07-15T01:37:41.975Z,43.6
2017-07-15T01:38:43.084Z,43.6
2017-07-15T01:39:44.551Z,43.5
2017-07-15T01:40:46.686Z,43.5
2017-07-15T01:41:48.483Z,43.5
2017-07-15T01:42:50.314Z,43.7
2017-07-15T01:43:52.110Z,43.9
2017-07-15T01:44:53.908Z,43.7
2017-07-15T01:45:56.082Z,43.7
2017-07-15T01:46:58.214Z,43.6
2017-07-15T01:48:00.015Z,43.6
2017-07-15T01:49:01.147Z,43.7
2017-07-15T01:50:02.251Z,43.9
2017-07-15T01:51:04.053Z,43.8
2017-07-15T01:52:05.853Z,43.6
2017-07-15T01:53:07.658Z,43.6
2017-07-15T01:54:09.455Z,43.9
2017-07-15T01:55:11.251Z,43.6
2017-07-15T01:56:12.689Z,43.9
2017-07-15T01:57:14.489Z,43.9
2017-07-15T01:58:16.295Z,43.9
2017-07-15T01:59:18.095Z,43.8
2017-07-15T02:00:19.539Z,43.8
2017-07-15T02:01:21.673Z,43.8
2017-07-15T02:02:23.475Z,43.6
2017-07-15T02:03:24.583Z,43.9
2017-07-15T02:04:26.715Z,43.8
2017-07-15T02:05:28.852Z,43.9
2017-07-15T02:06:30.987Z,43.7
2017-07-15T02:07:33.123Z,43.6
2017-07-15T02:08:34.921Z,43.9
2017-07-15T02:09:36.720Z,43.9
2017-07-15T02:10:38.188Z,43.8
2017-07-15T02:11:39.967Z,43.8
2017-07-15T02:12:41.430Z,43.8
2017-07-15T02:13:43.641Z,43.7
2017-07-15T02:14:45.440Z,43.8
2017-07-15T02:15:46.903Z,43.7
2017-07-15T02:16:49.038Z,43.8
2017-07-15T02:17:50.851Z,43.7
2017-07-15T02:18:52.653Z,43.8
2017-07-15T02:19:54.432Z,43.7
2017-07-15T02:20:56.585Z,43.8
2017-07-15T02:21:58.030Z,43.7
2017-07-15T02:23:00.163Z,43.8
2017-07-15T02:24:01.627Z,43.6
2017-07-15T02:25:03.757Z,43.8
2017-07-15T02:26:05.203Z,43.7
2017-07-15T02:27:06.665Z,43.8
2017-07-15T02:28:08.465Z,43.8
2017-07-15T02:29:09.933Z,43.8
2017-07-15T02:30:11.395Z,43.8
2017-07-15T02:31:13.193Z,43.7
2017-07-15T02:32:15.327Z,43.8
2017-07-15T02:33:17.141Z,43.8
2017-07-15T02:34:18.943Z,43.7
2017-07-15T02:35:20.718Z,43.7
2017-07-15T02:36:22.516Z,43.6
2017-07-15T02:37:24.313Z,43.6
2017-07-15T02:38:26.448Z,43.8
2017-07-15T02:39:28.225Z,43.7
2017-07-15T02:40:30.026Z,43.7
2017-07-15T02:41:31.806Z,43.7
2017-07-15T02:42:33.603Z,43.8
2017-07-15T02:43:35.737Z,43.7
2017-07-15T02:44:37.514Z,43.8
2017-07-15T02:45:38.956Z,43.6
2017-07-15T02:46:40.756Z,43.6
2017-07-15T02:47:42.559Z,43.9
2017-07-15T02:48:44.694Z,43.7
2017-07-15T02:49:46.494Z,43.8
2017-07-15T02:50:48.295Z,43.7
2017-07-15T02:51:50.434Z,43.9
2017-07-15T02:52:51.895Z,43.9
2017-07-15T02:53:54.028Z,43.8
2017-07-15T02:54:55.827Z,43.8
2017-07-15T02:55:57.961Z,43.8
2017-07-15T02:57:00.095Z,43.8
2017-07-15T02:58:01.876Z,43.6
2017-07-15T02:59:03.318Z,43.9
2017-07-15T03:00:05.115Z,43.6
2017-07-15T03:01:06.888Z,43.6
2017-07-15T03:02:08.694Z,43.7
2017-07-15T03:03:10.831Z,43.9
2017-07-15T03:04:12.630Z,43.7
2017-07-15T03:05:14.433Z,43.8
2017-07-15T03:06:16.229Z,43.7
2017-07-15T03:07:17.702Z,43.6
2017-07-15T03:08:19.478Z,44
2017-07-15T03:09:21.287Z,43.7
2017-07-15T03:10:23.423Z,43.9
2017-07-15T03:11:25.557Z,44
2017-07-15T03:12:27.356Z,44
2017-07-15T03:13:29.162Z,43.9
2017-07-15T03:14:30.963Z,44.1
2017-07-15T03:15:32.768Z,43.5
2017-07-15T03:16:34.903Z,43.5
2017-07-15T03:17:36.702Z,44
2017-07-15T03:18:38.148Z,44
2017-07-15T03:19:40.286Z,43.5
2017-07-15T03:20:42.419Z,43.8
2017-07-15T03:21:44.552Z,43.8
2017-07-15T03:22:46.695Z,43.9
2017-07-15T03:23:47.468Z,43.9
2017-07-15T03:24:48.915Z,43.8
2017-07-15T03:25:51.050Z,43.8
2017-07-15T03:26:53.190Z,43.8
2017-07-15T03:27:55.329Z,43.9
2017-07-15T03:28:56.799Z,44.1
2017-07-15T03:29:58.270Z,43.9
2017-07-15T03:31:00.070Z,44.1
2017-07-15T03:32:02.204Z,44
2017-07-15T03:33:04.005Z,43.7
2017-07-15T03:34:05.809Z,43.6
2017-07-15T03:35:07.618Z,43.5
2017-07-15T03:36:09.422Z,43.9
2017-07-15T03:37:11.220Z,43.7
2017-07-15T03:38:13.024Z,43.8
2017-07-15T03:39:14.826Z,43.9
2017-07-15T03:40:16.600Z,43.7
2017-07-15T03:41:18.735Z,43.6
2017-07-15T03:42:20.870Z,43.9
2017-07-15T03:43:22.651Z,43.9
2017-07-15T03:44:24.450Z,43.9
2017-07-15T03:45:26.250Z,43.6
2017-07-15T03:46:28.384Z,43.7
2017-07-15T03:47:30.161Z,44
2017-07-15T03:48:31.624Z,44
2017-07-15T03:49:33.430Z,43.8
2017-07-15T03:50:35.210Z,43.6
2017-07-15T03:51:36.677Z,43.7
2017-07-15T03:52:38.480Z,43.8
2017-07-15T03:53:40.614Z,43.8
2017-07-15T03:54:42.388Z,43.6
2017-07-15T03:55:44.189Z,43.8
2017-07-15T03:56:45.349Z,43.9
2017-07-15T03:57:47.155Z,43.8
2017-07-15T03:58:48.952Z,43.5
2017-07-15T03:59:51.085Z,43.6
2017-07-15T04:00:52.549Z,43.9
2017-07-15T04:01:54.327Z,43.9
2017-07-15T04:02:55.768Z,43.5
2017-07-15T04:03:57.551Z,43.6
2017-07-15T04:04:59.018Z,43.7
2017-07-15T04:06:00.798Z,43.8
2017-07-15T04:07:02.981Z,43.7
2017-07-15T04:08:04.786Z,43.5
2017-07-15T04:09:06.235Z,43.9
2017-07-15T04:10:08.369Z,43.8
2017-07-15T04:11:10.142Z,43.7
2017-07-15T04:12:11.604Z,43.8
2017-07-15T04:13:13.378Z,43.4
2017-07-15T04:14:15.180Z,43.8
2017-07-15T04:15:17.318Z,43.4
2017-07-15T04:16:18.757Z,43.5
2017-07-15T04:17:20.587Z,43.7
2017-07-15T04:18:22.376Z,43.4
2017-07-15T04:19:24.174Z,43.7
2017-07-15T04:20:25.974Z,43.8
2017-07-15T04:21:28.111Z,43.5
2017-07-15T04:22:29.553Z,43.5
2017-07-15T04:23:31.025Z,43.6
2017-07-15T04:24:32.486Z,43.7
2017-07-15T04:25:33.950Z,43.7
2017-07-15T04:26:35.750Z,43.8
2017-07-15T04:27:37.215Z,43.6
2017-07-15T04:28:38.998Z,43.5
2017-07-15T04:29:40.443Z,43.5
2017-07-15T04:30:41.552Z,43.4
2017-07-15T04:31:43.356Z,43.5
2017-07-15T04:32:45.495Z,43.7
2017-07-15T04:33:47.298Z,43.5
2017-07-15T04:34:49.098Z,43.3
2017-07-15T04:35:51.233Z,43.5
2017-07-15T04:36:53.367Z,43.7
2017-07-15T04:37:55.504Z,43.6
2017-07-15T04:38:57.644Z,43.3
2017-07-15T04:39:59.101Z,43.6
2017-07-15T04:41:00.543Z,43.3
2017-07-15T04:42:02.676Z,43.6
2017-07-15T04:43:04.124Z,43.7
2017-07-15T04:44:06.254Z,43.4
2017-07-15T04:45:08.033Z,43.6
2017-07-15T04:46:09.836Z,43.7
2017-07-15T04:47:11.989Z,43.6
2017-07-15T04:48:14.123Z,43.6
2017-07-15T04:49:15.590Z,43.4
2017-07-15T04:50:17.365Z,43.5
2017-07-15T04:51:19.504Z,43.4
2017-07-15T04:52:20.973Z,43.5
2017-07-15T04:53:23.109Z,43.8
2017-07-15T04:54:25.242Z,43.3
2017-07-15T04:55:27.047Z,43.5
2017-07-15T04:56:28.847Z,43.3
2017-07-15T04:57:30.310Z,43.7
2017-07-15T04:58:31.418Z,43.7
2017-07-15T04:59:33.553Z,43.5
2017-07-15T05:00:35.356Z,43.1
2017-07-15T05:01:36.817Z,42.9
2017-07-15T05:02:38.616Z,43.3
2017-07-15T05:03:40.755Z,43.2
2017-07-15T05:04:42.562Z,43
2017-07-15T05:05:44.332Z,43.3
2017-07-15T05:06:46.147Z,43.3
2017-07-15T05:07:47.648Z,43.2
2017-07-15T05:08:49.453Z,43.3
2017-07-15T05:09:51.597Z,42.8
2017-07-15T05:10:53.041Z,42.9
2017-07-15T05:11:55.175Z,43.1
2017-07-15T05:12:57.414Z,42.9
2017-07-15T05:13:59.550Z,43.1
2017-07-15T05:15:01.351Z,43.4
2017-07-15T05:16:02.815Z,43.1
2017-07-15T05:17:04.611Z,43.4
2017-07-15T05:18:06.416Z,42.7
2017-07-15T05:19:07.883Z,42.9
2017-07-15T05:20:09.350Z,42.8
2017-07-15T05:21:11.149Z,42.9
2017-07-15T05:22:12.953Z,42.5
2017-07-15T05:23:14.753Z,42.3
2017-07-15T05:24:15.861Z,42.3
2017-07-15T05:25:17.660Z,41.8
2017-07-15T05:26:19.813Z,41.9
2017-07-15T05:27:21.269Z,42
2017-07-15T05:28:23.086Z,42.1
2017-07-15T05:29:24.553Z,42
2017-07-15T05:30:26.330Z,42.1
2017-07-15T05:31:27.442Z,42.3
2017-07-15T05:32:29.579Z,42.2
2017-07-15T05:33:31.378Z,42.6
2017-07-15T05:34:32.846Z,42.4
2017-07-15T05:35:34.622Z,42.2
2017-07-15T05:36:35.738Z,42.1
2017-07-15T05:37:37.870Z,42.5
2017-07-15T05:38:39.772Z,41.8
2017-07-15T05:39:41.914Z,42.1
2017-07-15T05:40:43.709Z,42.1
2017-07-15T05:41:45.490Z,42.2
2017-07-15T05:42:47.291Z,42.3
2017-07-15T05:43:48.736Z,42.3
2017-07-15T05:44:50.538Z,42.5
2017-07-15T05:45:52.677Z,42.1
2017-07-15T05:46:54.141Z,42.4
2017-07-15T05:47:56.277Z,42.2
2017-07-15T05:48:58.411Z,42.2
2017-07-15T05:50:00.547Z,42.3
2017-07-15T05:51:02.344Z,42.2
2017-07-15T05:52:04.481Z,42
2017-07-15T05:53:05.950Z,42.3
2017-07-15T05:54:07.417Z,42.3
2017-07-15T05:55:08.863Z,42.3
2017-07-15T05:56:10.307Z,42.2
2017-07-15T05:57:11.445Z,42.2
2017-07-15T05:58:12.888Z,42.1
2017-07-15T05:59:13.996Z,42.1
2017-07-15T06:00:15.798Z,42.2
2017-07-15T06:01:17.933Z,42.2
2017-07-15T06:02:20.071Z,42.1
2017-07-15T06:03:21.876Z,42.3
2017-07-15T06:04:24.012Z,42.5
2017-07-15T06:05:25.123Z,42.1
2017-07-15T06:06:27.260Z,42.3
2017-07-15T06:07:28.368Z,42.3
2017-07-15T06:08:30.170Z,42.2
2017-07-15T06:09:31.615Z,42.6
2017-07-15T06:10:33.433Z,42.2
2017-07-15T06:11:35.570Z,42.1
2017-07-15T06:12:37.371Z,42.1
2017-07-15T06:13:39.173Z,42.5
2017-07-15T06:14:41.310Z,42.5
2017-07-15T06:15:42.778Z,42.6
2017-07-15T06:16:44.219Z,42.5
2017-07-15T06:17:46.022Z,42.6
2017-07-15T06:18:47.487Z,42.7
2017-07-15T06:19:49.293Z,42.3
2017-07-15T06:20:51.430Z,42.4
2017-07-15T06:21:52.872Z,42.5
2017-07-15T06:22:55.009Z,42.3
2017-07-15T06:23:56.451Z,42.4
2017-07-15T06:24:58.252Z,42.3
2017-07-15T06:25:59.721Z,42.1
2017-07-15T06:27:01.185Z,42
2017-07-15T06:28:02.987Z,42.2
2017-07-15T06:29:04.787Z,42.1
2017-07-15T06:30:06.590Z,42.2
2017-07-15T06:31:08.389Z,42.3
2017-07-15T06:32:10.528Z,42
2017-07-15T06:33:12.659Z,42.1
2017-07-15T06:34:14.461Z,42
2017-07-15T06:35:15.668Z,41.8
2017-07-15T06:36:17.468Z,41.9
2017-07-15T06:37:19.246Z,41.8
2017-07-15T06:38:21.398Z,42.1
2017-07-15T06:39:23.201Z,41.9
2017-07-15T06:40:24.665Z,41.7
2017-07-15T06:41:26.808Z,42.1
2017-07-15T06:42:28.253Z,41.9
2017-07-15T06:43:29.726Z,42.1
2017-07-15T06:44:31.859Z,42.2
2017-07-15T06:45:33.999Z,41.9
2017-07-15T06:46:35.801Z,42
2017-07-15T06:47:37.602Z,41.9
2017-07-15T06:48:39.407Z,42
2017-07-15T06:49:40.854Z,42
2017-07-15T06:50:42.996Z,41.7
2017-07-15T06:51:45.135Z,42
2017-07-15T06:52:47.269Z,42.2
2017-07-15T06:53:49.409Z,42.2
2017-07-15T06:54:51.214Z,42.1
2017-07-15T06:55:52.659Z,42.3
2017-07-15T06:56:54.125Z,42.1
2017-07-15T06:57:56.257Z,42.3
2017-07-15T06:58:58.063Z,42.3
2017-07-15T06:59:59.872Z,42.3
2017-07-15T07:01:01.674Z,42.1
2017-07-15T07:02:03.477Z,42.2
2017-07-15T07:03:04.978Z,42
2017-07-15T07:04:07.111Z,42.2
2017-07-15T07:05:08.558Z,42.1
2017-07-15T07:06:10.694Z,42.3
2017-07-15T07:07:12.501Z,42.1
2017-07-15T07:08:14.281Z,41.8
2017-07-15T07:09:16.080Z,42.2
2017-07-15T07:10:18.221Z,41.7
2017-07-15T07:11:20.360Z,42
2017-07-15T07:12:22.166Z,41.9
2017-07-15T07:13:23.631Z,41.8
2017-07-15T07:14:25.437Z,41.8
2017-07-15T07:15:27.574Z,42.1
2017-07-15T07:16:29.380Z,41.8
2017-07-15T07:17:31.177Z,41.8
2017-07-15T07:18:33.326Z,41.8
2017-07-15T07:19:35.447Z,42
2017-07-15T07:20:37.593Z,42.4
2017-07-15T07:21:39.720Z,41.8
2017-07-15T07:22:41.186Z,42.2
2017-07-15T07:23:42.630Z,42.2
2017-07-15T07:24:44.415Z,41.8
2017-07-15T07:25:45.525Z,42
2017-07-15T07:26:47.660Z,42
2017-07-15T07:27:49.799Z,41.9
2017-07-15T07:28:51.935Z,41.7
2017-07-15T07:29:54.073Z,41.8
2017-07-15T07:30:55.867Z,41.9
2017-07-15T07:31:57.338Z,41.8
2017-07-15T07:32:59.139Z,42
2017-07-15T07:34:00.941Z,41.9
2017-07-15T07:35:02.411Z,42.2
2017-07-15T07:36:04.217Z,41.8
2017-07-15T07:37:05.684Z,42
2017-07-15T07:38:07.136Z,41.9
2017-07-15T07:39:08.943Z,42
2017-07-15T07:40:10.384Z,42
2017-07-15T07:41:12.518Z,41.9
2017-07-15T07:42:14.654Z,42.2
2017-07-15T07:43:16.460Z,42
2017-07-15T07:44:18.602Z,41.8
2017-07-15T07:45:20.402Z,42.2
2017-07-15T07:46:22.207Z,42
2017-07-15T07:47:24.342Z,41.9
2017-07-15T07:48:25.782Z,42
2017-07-15T07:49:27.921Z,42.1
2017-07-15T07:50:29.361Z,41.9
2017-07-15T07:51:30.805Z,41.8
2017-07-15T07:52:31.918Z,41.6
2017-07-15T07:53:33.370Z,41.7
2017-07-15T07:54:35.503Z,41.6
2017-07-15T07:55:36.616Z,41.8
2017-07-15T07:56:38.418Z,42
2017-07-15T07:57:39.891Z,41.9
2017-07-15T07:58:41.695Z,42
2017-07-15T07:59:43.497Z,42
2017-07-15T08:00:44.971Z,41.7
2017-07-15T08:01:47.101Z,41.8
2017-07-15T08:02:48.605Z,41.8
2017-07-15T08:03:50.742Z,41.7
2017-07-15T08:04:52.208Z,41.7
2017-07-15T08:05:53.657Z,41.7
2017-07-15T08:06:55.842Z,41.9
2017-07-15T08:07:57.979Z,42
2017-07-15T08:09:00.114Z,41.9
2017-07-15T08:10:01.231Z,42
2017-07-15T08:11:02.337Z,42
2017-07-15T08:12:03.783Z,42.1
2017-07-15T08:13:05.588Z,41.8
2017-07-15T08:14:07.390Z,41.9
2017-07-15T08:15:09.194Z,41.8
2017-07-15T08:16:11.362Z,42.1
2017-07-15T08:17:13.211Z,41.7
2017-07-15T08:18:15.012Z,41.9
2017-07-15T08:19:17.173Z,42.1
2017-07-15T08:20:18.979Z,42
2017-07-15T08:21:20.776Z,42.1
2017-07-15T08:22:22.910Z,41.9
2017-07-15T08:23:24.351Z,42.1
2017-07-15T08:24:25.818Z,41.9
2017-07-15T08:25:27.955Z,42
2017-07-15T08:26:30.091Z,42.1
2017-07-15T08:27:31.899Z,41.7
2017-07-15T08:28:33.364Z,41.7
2017-07-15T08:29:35.166Z,42.1
2017-07-15T08:30:36.613Z,41.8
2017-07-15T08:31:37.386Z,42
2017-07-15T08:32:39.575Z,42.4
2017-07-15T08:33:41.042Z,42.2
2017-07-15T08:34:42.845Z,42.4
2017-07-15T08:35:44.979Z,42.3
2017-07-15T08:36:46.447Z,42.1
2017-07-15T08:37:48.248Z,42.2
2017-07-15T08:38:50.031Z,42.2
2017-07-15T08:39:52.167Z,42.2
2017-07-15T08:40:54.305Z,42.4
2017-07-15T08:41:56.440Z,42.4
2017-07-15T08:42:58.240Z,42.4
2017-07-15T08:44:00.041Z,42.1
2017-07-15T08:45:02.177Z,42.3
2017-07-15T08:46:03.982Z,42.2
2017-07-15T08:47:05.780Z,42.6
2017-07-15T08:48:07.581Z,42.5
2017-07-15T08:49:09.719Z,42.4
2017-07-15T08:50:11.526Z,42.9
2017-07-15T08:51:13.662Z,42.4
2017-07-15T08:52:15.795Z,42.6
2017-07-15T08:53:17.594Z,42.7
2017-07-15T08:54:19.060Z,42.8
2017-07-15T08:55:20.506Z,42.9
2017-07-15T08:56:22.309Z,43
2017-07-15T08:57:23.776Z,43.4
2017-07-15T08:58:25.244Z,43.5
2017-07-15T08:59:26.706Z,43.6
2017-07-15T09:00:28.829Z,43.4
2017-07-15T09:01:30.968Z,43.6
2017-07-15T09:02:32.772Z,43.3
2017-07-15T09:03:33.880Z,43.4
2017-07-15T09:04:36.018Z,42.9
2017-07-15T09:05:37.154Z,42.9
2017-07-15T09:06:39.290Z,43.1
2017-07-15T09:07:40.758Z,42.9
2017-07-15T09:08:42.202Z,43
2017-07-15T09:09:43.668Z,43.4
2017-07-15T09:10:45.802Z,43.4
2017-07-15T09:11:47.583Z,43.6
2017-07-15T09:12:49.360Z,43.4
2017-07-15T09:13:51.159Z,43.4
2017-07-15T09:14:52.601Z,43
2017-07-15T09:15:54.742Z,43.5
2017-07-15T09:16:56.210Z,42.8
2017-07-15T09:17:58.009Z,43
2017-07-15T09:19:00.143Z,43.3
2017-07-15T09:20:02.289Z,43.2
2017-07-15T09:21:04.087Z,42.8
2017-07-15T09:22:05.556Z,42.7
2017-07-15T09:23:07.002Z,43.1
2017-07-15T09:24:08.811Z,42.7
2017-07-15T09:25:09.919Z,43.1
2017-07-15T09:26:11.719Z,42.6
2017-07-15T09:27:13.164Z,42.7
2017-07-15T09:28:14.617Z,42.8
2017-07-15T09:29:16.395Z,42.7
2017-07-15T09:30:18.197Z,42.8
2017-07-15T09:31:19.982Z,42.8
2017-07-15T09:32:21.428Z,42.9
2017-07-15T09:33:23.210Z,42.8
2017-07-15T09:34:24.676Z,42.6
2017-07-15T09:35:26.120Z,42.6
2017-07-15T09:36:27.592Z,43
2017-07-15T09:37:28.700Z,43.1
2017-07-15T09:38:30.157Z,42.8
2017-07-15T09:39:31.961Z,42.8
2017-07-15T09:40:33.764Z,42.7
2017-07-15T09:41:35.562Z,42.9
2017-07-15T09:42:37.350Z,42.9
2017-07-15T09:43:39.156Z,42.7
2017-07-15T09:44:40.959Z,42.7
2017-07-15T09:45:42.770Z,42.6
2017-07-15T09:46:44.229Z,42.8
2017-07-15T09:47:46.030Z,42.7
2017-07-15T09:48:47.834Z,42.6
2017-07-15T09:49:49.631Z,42.6
2017-07-15T09:50:51.085Z,42.6
2017-07-15T09:51:52.894Z,42.5
2017-07-15T09:52:54.670Z,42.7
2017-07-15T09:53:56.116Z,42.8
2017-07-15T09:54:57.557Z,42.8
2017-07-15T09:55:59.337Z,42.9
2017-07-15T09:57:00.803Z,42.8
2017-07-15T09:58:02.608Z,42.8
2017-07-15T09:59:04.737Z,42.8
2017-07-15T10:00:06.542Z,42.8
2017-07-15T10:01:08.681Z,42.6
2017-07-15T10:02:10.129Z,42.6
2017-07-15T10:03:11.576Z,42.6
2017-07-15T10:04:13.713Z,42.4
2017-07-15T10:05:15.157Z,42.1
2017-07-15T10:06:16.605Z,42.5
2017-07-15T10:07:18.072Z,42.4
2017-07-15T10:08:19.874Z,42.5
2017-07-15T10:09:21.687Z,42.2
2017-07-15T10:10:23.821Z,42.2
2017-07-15T10:11:25.958Z,42.5
2017-07-15T10:12:28.095Z,42.3
2017-07-15T10:13:29.894Z,42.2
2017-07-15T10:14:31.357Z,42.3
2017-07-15T10:15:33.165Z,42
2017-07-15T10:16:35.308Z,42.1
2017-07-15T10:17:36.770Z,42.5
2017-07-15T10:18:38.546Z,42.4
2017-07-15T10:19:40.686Z,42.5
2017-07-15T10:20:42.830Z,42.3
2017-07-15T10:21:44.966Z,42.4
2017-07-15T10:22:47.106Z,42.4
2017-07-15T10:23:48.567Z,42.6
2017-07-15T10:24:50.706Z,42.2
2017-07-15T10:25:52.486Z,42.1
2017-07-15T10:26:53.930Z,42.1
2017-07-15T10:27:55.736Z,42.3
2017-07-15T10:28:57.876Z,42.4
2017-07-15T10:29:59.676Z,42.4
2017-07-15T10:31:01.911Z,42.6
2017-07-15T10:32:03.377Z,42.2
2017-07-15T10:33:05.194Z,42.4
2017-07-15T10:34:07.328Z,42.2
2017-07-15T10:35:09.464Z,42.2
2017-07-15T10:36:11.266Z,42.2
2017-07-15T10:37:13.069Z,42.1
2017-07-15T10:38:14.513Z,42.1
2017-07-15T10:39:16.656Z,42.3
2017-07-15T10:40:17.775Z,42.4
2017-07-15T10:41:19.578Z,42.4
2017-07-15T10:42:21.022Z,42.4
2017-07-15T10:43:23.159Z,42.2
2017-07-15T10:44:24.961Z,42.4
2017-07-15T10:45:27.102Z,42.4
2017-07-15T10:46:28.907Z,42.1
2017-07-15T10:47:31.044Z,42.4
2017-07-15T10:48:32.844Z,42.3
2017-07-15T10:49:34.626Z,42.3
2017-07-15T10:50:36.429Z,42.4
2017-07-15T10:51:37.895Z,42.4
2017-07-15T10:52:39.714Z,42.2
2017-07-15T10:53:41.158Z,42.4
2017-07-15T10:54:42.936Z,42.3
2017-07-15T10:55:45.077Z,42.1
2017-07-15T10:56:46.569Z,42.1
2017-07-15T10:57:48.372Z,42.1
2017-07-15T10:58:50.509Z,42
2017-07-15T10:59:52.295Z,42.2
2017-07-15T11:00:54.503Z,42.4
2017-07-15T11:01:56.288Z,42
2017-07-15T11:02:57.733Z,41.9
2017-07-15T11:03:59.178Z,42.2
2017-07-15T11:05:00.647Z,42
2017-07-15T11:06:02.786Z,41.9
2017-07-15T11:07:03.895Z,42
2017-07-15T11:08:05.341Z,42.1
2017-07-15T11:09:06.781Z,42.1
2017-07-15T11:10:08.564Z,41.9
2017-07-15T11:11:10.009Z,41.8
2017-07-15T11:12:11.812Z,41.9
2017-07-15T11:13:13.952Z,41.8
2017-07-15T11:14:15.756Z,41.9
2017-07-15T11:15:17.198Z,41.8
2017-07-15T11:16:18.647Z,42.1
2017-07-15T11:17:20.454Z,41.8
2017-07-15T11:18:21.584Z,42
2017-07-15T11:19:23.717Z,42.1
2017-07-15T11:20:25.519Z,42.2
2017-07-15T11:21:27.662Z,42.1
2017-07-15T11:22:29.443Z,41.8
2017-07-15T11:23:30.891Z,41.9
2017-07-15T11:24:32.358Z,42.1
2017-07-15T11:25:34.495Z,41.9
2017-07-15T11:26:35.630Z,41.9
2017-07-15T11:27:37.426Z,42
2017-07-15T11:28:39.230Z,41.9
2017-07-15T11:29:40.705Z,42.2
2017-07-15T11:30:42.485Z,42.2
2017-07-15T11:31:44.288Z,42.1
2017-07-15T11:32:46.092Z,41.9
2017-07-15T11:33:47.559Z,41.9
2017-07-15T11:34:49.695Z,42.2
2017-07-15T11:35:51.495Z,41.8
2017-07-15T11:36:53.297Z,42
2017-07-15T11:37:54.743Z,42
2017-07-15T11:38:56.525Z,42.1
2017-07-15T11:39:57.994Z,41.9
2017-07-15T11:41:00.128Z,42.2
2017-07-15T11:42:01.935Z,41.9
2017-07-15T11:43:03.731Z,42.1
2017-07-15T11:44:05.172Z,42
2017-07-15T11:45:06.620Z,42.1
2017-07-15T11:46:08.067Z,41.8
2017-07-15T11:47:09.868Z,41.8
2017-07-15T11:48:11.669Z,42.2
2017-07-15T11:49:13.114Z,42.1
2017-07-15T11:50:14.227Z,41.8
2017-07-15T11:51:16.028Z,42.2
2017-07-15T11:52:18.167Z,41.6
2017-07-15T11:53:19.636Z,41.8
2017-07-15T11:54:21.439Z,41.9
2017-07-15T11:55:23.575Z,42.1
2017-07-15T11:56:25.019Z,41.9
2017-07-15T11:57:26.822Z,42
2017-07-15T11:58:28.655Z,41.9
2017-07-15T11:59:30.097Z,42
2017-07-15T12:00:32.231Z,41.7
2017-07-15T12:01:34.037Z,41.6
2017-07-15T12:02:35.841Z,42.2
2017-07-15T12:03:37.305Z,42.4
2017-07-15T12:04:39.443Z,41.7
2017-07-15T12:05:41.578Z,41.8
2017-07-15T12:06:43.716Z,42.3
2017-07-15T12:07:45.187Z,42.2
2017-07-15T12:08:46.985Z,41.8
2017-07-15T12:09:49.124Z,41.8
2017-07-15T12:10:50.924Z,42.1
2017-07-15T12:11:52.397Z,41.6
2017-07-15T12:12:54.204Z,41.7
2017-07-15T12:13:55.986Z,41.6
2017-07-15T12:14:57.787Z,41.7
2017-07-15T12:15:59.589Z,41.8
2017-07-15T12:17:01.392Z,41.6
2017-07-15T12:18:03.190Z,41.6
2017-07-15T12:19:04.968Z,41.8
2017-07-15T12:20:06.436Z,41.7
2017-07-15T12:21:08.247Z,42.3
2017-07-15T12:22:10.385Z,41.7
2017-07-15T12:23:11.516Z,42.1
2017-07-15T12:24:13.031Z,41.8
2017-07-15T12:25:14.809Z,42.1
2017-07-15T12:26:15.930Z,41.6
2017-07-15T12:27:18.087Z,41.6
2017-07-15T12:28:20.281Z,42
2017-07-15T12:29:21.390Z,41.6
2017-07-15T12:30:23.525Z,41.9
2017-07-15T12:31:25.660Z,41.8
2017-07-15T12:32:27.109Z,42.1
2017-07-15T12:33:28.890Z,41.9
2017-07-15T12:34:30.689Z,41.8
2017-07-15T12:35:32.133Z,42
2017-07-15T12:36:33.247Z,41.9
2017-07-15T12:37:35.385Z,42
2017-07-15T12:38:36.495Z,41.7
2017-07-15T12:39:38.631Z,42.1
2017-07-15T12:40:40.078Z,41.6
2017-07-15T12:41:41.855Z,41.9
2017-07-15T12:42:42.965Z,42.3
2017-07-15T12:43:44.742Z,41.6
2017-07-15T12:44:46.545Z,41.9
2017-07-15T12:45:48.345Z,41.8
2017-07-15T12:46:49.453Z,42.2
2017-07-15T12:47:51.277Z,42.2
2017-07-15T12:48:52.411Z,41.8
2017-07-15T12:49:54.215Z,42
2017-07-15T12:50:56.019Z,42
2017-07-15T12:51:58.153Z,41.8
2017-07-15T12:52:59.604Z,41.9
2017-07-15T12:54:01.047Z,42
2017-07-15T12:55:02.847Z,42.1
2017-07-15T12:56:03.623Z,41.9
2017-07-15T12:57:05.424Z,41.8
2017-07-15T12:58:06.867Z,42
2017-07-15T12:59:09.006Z,41.8
2017-07-15T13:00:10.811Z,41.7
2017-07-15T13:01:12.950Z,41.6
2017-07-15T13:02:14.399Z,42
2017-07-15T13:03:16.180Z,41.6
2017-07-15T13:04:18.314Z,41.9
2017-07-15T13:05:20.449Z,41.8
2017-07-15T13:06:22.254Z,41.9
2017-07-15T13:07:24.391Z,41.4
2017-07-15T13:08:26.196Z,41.6
2017-07-15T13:09:28.333Z,41.5
2017-07-15T13:10:30.116Z,41.4
2017-07-15T13:11:31.899Z,41.6
2017-07-15T13:12:33.363Z,41.6
2017-07-15T13:13:34.836Z,41.6
2017-07-15T13:14:36.967Z,41.5
2017-07-15T13:15:39.107Z,41.6
2017-07-15T13:16:41.243Z,41.6
2017-07-15T13:17:43.041Z,41.6
2017-07-15T13:18:44.486Z,41.4
2017-07-15T13:19:46.683Z,41.6
2017-07-15T13:20:48.819Z,41.5
2017-07-15T13:21:50.620Z,41.7
2017-07-15T13:22:52.756Z,41.6
2017-07-15T13:23:54.557Z,41.4
2017-07-15T13:24:56.799Z,41.5
2017-07-15T13:25:58.933Z,41.6
2017-07-15T13:27:00.397Z,41.3
2017-07-15T13:28:02.200Z,41.6
2017-07-15T13:29:03.649Z,41.5
2017-07-15T13:30:05.449Z,41.6
2017-07-15T13:31:07.587Z,41.3
2017-07-15T13:32:09.390Z,41.4
2017-07-15T13:33:11.528Z,41.7
2017-07-15T13:34:13.666Z,41.4
2017-07-15T13:35:15.467Z,41.4
2017-07-15T13:36:16.249Z,41.3
2017-07-15T13:37:18.048Z,41.5
2017-07-15T13:38:19.829Z,41.4
2017-07-15T13:39:21.298Z,41.4
2017-07-15T13:40:23.102Z,41.5
2017-07-15T13:41:25.238Z,41.4
2017-07-15T13:42:27.376Z,41.4
2017-07-15T13:43:29.178Z,41
2017-07-15T13:44:30.961Z,41.3
2017-07-15T13:45:32.789Z,41.4
2017-07-15T13:46:34.927Z,41
2017-07-15T13:47:36.728Z,41.5
2017-07-15T13:48:38.866Z,41.6
2017-07-15T13:49:40.314Z,41.3